sensor_id;sensor_type;location;lat;lon;timestamp;P1;durP1;ratioP1;P2;durP2;ratioP2
13520;SDS011;6832;51.186;3.236;2023-04-07T00:00:50;27.87;;;6.07;;
13520;SDS011;6832;51.186;3.236;2023-04-07T00:03:24;35.13;;;6.07;;
13520;SDS011;6832;51.186;3.236;2023-04-07T00:05:51;44.33;;;7.07;;
13520;SDS011;6832;51.186;3.236;2023-04-07T00:08:18;43.17;;;7.00;;
13520;SDS011;6832;51.186;3.236;2023-04-07T00:10:46;33.37;;;6.30;;
13520;SDS011;6832;51.186;3.236;2023-04-07T00:13:12;68.63;;;8.83;;
13520;SDS011;6832;51.186;3.236;2023-04-07T00:15:42;29.30;;;6.07;;
13520;SDS011;6832;51.186;3.236;2023-04-07T00:18:09;26.13;;;5.67;;
13520;SDS011;6832;51.186;3.236;2023-04-07T00:20:41;49.70;;;7.63;;
13520;SDS011;6832;51.186;3.236;2023-04-07T00:23:08;26.40;;;5.87;;
13520;SDS011;6832;51.186;3.236;2023-04-07T00:25:35;37.87;;;7.03;;
13520;SDS011;6832;51.186;3.236;2023-04-07T00:28:02;28.63;;;5.73;;
13520;SDS011;6832;51.186;3.236;2023-04-07T00:30:29;25.60;;;5.30;;
13520;SDS011;6832;51.186;3.236;2023-04-07T00:32:57;26.00;;;5.83;;
13520;SDS011;6832;51.186;3.236;2023-04-07T00:35:24;25.03;;;5.57;;
13520;SDS011;6832;51.186;3.236;2023-04-07T00:37:51;27.27;;;6.17;;
13520;SDS011;6832;51.186;3.236;2023-04-07T00:40:18;36.23;;;6.77;;
13520;SDS011;6832;51.186;3.236;2023-04-07T00:42:45;40.87;;;6.87;;
13520;SDS011;6832;51.186;3.236;2023-04-07T00:45:12;23.27;;;5.50;;
13520;SDS011;6832;51.186;3.236;2023-04-07T00:47:39;33.70;;;6.53;;
13520;SDS011;6832;51.186;3.236;2023-04-07T00:50:08;32.87;;;6.13;;
13520;SDS011;6832;51.186;3.236;2023-04-07T00:52:36;36.93;;;7.03;;
13520;SDS011;6832;51.186;3.236;2023-04-07T00:55:03;30.73;;;6.57;;
13520;SDS011;6832;51.186;3.236;2023-04-07T00:57:30;43.93;;;7.37;;
13520;SDS011;6832;51.186;3.236;2023-04-07T00:59:57;29.37;;;6.20;;
13520;SDS011;6832;51.186;3.236;2023-04-07T01:02:26;27.03;;;6.10;;
13520;SDS011;6832;51.186;3.236;2023-04-07T01:05:02;27.70;;;6.07;;
13520;SDS011;6832;51.186;3.236;2023-04-07T01:07:38;59.50;;;8.53;;
13520;SDS011;6832;51.186;3.236;2023-04-07T01:10:10;31.90;;;6.33;;
13520;SDS011;6832;51.186;3.236;2023-04-07T01:12:43;31.67;;;6.50;;
13520;SDS011;6832;51.186;3.236;2023-04-07T01:15:18;33.63;;;6.63;;
13520;SDS011;6832;51.186;3.236;2023-04-07T01:17:48;27.13;;;5.77;;
13520;SDS011;6832;51.186;3.236;2023-04-07T01:20:22;31.07;;;6.57;;
13520;SDS011;6832;51.186;3.236;2023-04-07T01:22:55;38.37;;;6.80;;
13520;SDS011;6832;51.186;3.236;2023-04-07T01:25:30;46.20;;;7.33;;
13520;SDS011;6832;51.186;3.236;2023-04-07T01:28:13;33.23;;;6.40;;
13520;SDS011;6832;51.186;3.236;2023-04-07T01:30:54;27.07;;;5.83;;
13520;SDS011;6832;51.186;3.236;2023-04-07T01:33:23;29.10;;;6.37;;
13520;SDS011;6832;51.186;3.236;2023-04-07T01:35:52;53.37;;;8.07;;
13520;SDS011;6832;51.186;3.236;2023-04-07T01:38:21;30.13;;;6.53;;
13520;SDS011;6832;51.186;3.236;2023-04-07T01:40:50;29.13;;;6.53;;
13520;SDS011;6832;51.186;3.236;2023-04-07T01:43:18;22.10;;;5.70;;
13520;SDS011;6832;51.186;3.236;2023-04-07T01:45:46;22.20;;;5.43;;
13520;SDS011;6832;51.186;3.236;2023-04-07T01:48:15;32.93;;;6.47;;
13520;SDS011;6832;51.186;3.236;2023-04-07T01:50:43;53.97;;;8.00;;
13520;SDS011;6832;51.186;3.236;2023-04-07T01:53:11;24.13;;;5.60;;
13520;SDS011;6832;51.186;3.236;2023-04-07T01:55:40;17.40;;;5.07;;
13520;SDS011;6832;51.186;3.236;2023-04-07T01:58:08;45.90;;;7.67;;
13520;SDS011;6832;51.186;3.236;2023-04-07T02:00:35;24.83;;;5.80;;
13520;SDS011;6832;51.186;3.236;2023-04-07T02:03:04;29.13;;;5.97;;
13520;SDS011;6832;51.186;3.236;2023-04-07T02:05:35;22.20;;;5.20;;
13520;SDS011;6832;51.186;3.236;2023-04-07T02:08:05;33.07;;;6.53;;
13520;SDS011;6832;51.186;3.236;2023-04-07T02:10:36;26.00;;;6.27;;
13520;SDS011;6832;51.186;3.236;2023-04-07T02:13:04;28.07;;;6.13;;
13520;SDS011;6832;51.186;3.236;2023-04-07T02:15:34;47.43;;;7.83;;
13520;SDS011;6832;51.186;3.236;2023-04-07T02:18:02;25.50;;;5.97;;
13520;SDS011;6832;51.186;3.236;2023-04-07T02:20:32;21.17;;;5.50;;
13520;SDS011;6832;51.186;3.236;2023-04-07T02:23:02;26.90;;;5.43;;
13520;SDS011;6832;51.186;3.236;2023-04-07T02:25:30;20.23;;;5.33;;
13520;SDS011;6832;51.186;3.236;2023-04-07T02:27:58;19.57;;;4.90;;
13520;SDS011;6832;51.186;3.236;2023-04-07T02:30:26;29.57;;;5.80;;
13520;SDS011;6832;51.186;3.236;2023-04-07T02:32:53;31.27;;;6.50;;
13520;SDS011;6832;51.186;3.236;2023-04-07T02:35:20;27.60;;;6.30;;
13520;SDS011;6832;51.186;3.236;2023-04-07T02:37:49;37.93;;;7.13;;
13520;SDS011;6832;51.186;3.236;2023-04-07T02:40:16;49.43;;;8.00;;
13520;SDS011;6832;51.186;3.236;2023-04-07T02:42:43;28.90;;;6.03;;
13520;SDS011;6832;51.186;3.236;2023-04-07T02:45:11;30.23;;;6.00;;
13520;SDS011;6832;51.186;3.236;2023-04-07T02:47:38;25.03;;;5.97;;
13520;SDS011;6832;51.186;3.236;2023-04-07T02:50:05;49.57;;;7.80;;
13520;SDS011;6832;51.186;3.236;2023-04-07T02:52:33;29.80;;;6.20;;
13520;SDS011;6832;51.186;3.236;2023-04-07T02:55:02;25.77;;;5.93;;
13520;SDS011;6832;51.186;3.236;2023-04-07T02:57:31;26.83;;;6.40;;
13520;SDS011;6832;51.186;3.236;2023-04-07T02:59:58;34.67;;;6.70;;
13520;SDS011;6832;51.186;3.236;2023-04-07T03:02:25;36.10;;;6.77;;
13520;SDS011;6832;51.186;3.236;2023-04-07T03:04:52;23.40;;;5.73;;
13520;SDS011;6832;51.186;3.236;2023-04-07T03:07:19;34.30;;;6.60;;
13520;SDS011;6832;51.186;3.236;2023-04-07T03:09:45;25.43;;;5.90;;
13520;SDS011;6832;51.186;3.236;2023-04-07T03:12:14;38.30;;;7.03;;
13520;SDS011;6832;51.186;3.236;2023-04-07T03:14:41;25.80;;;5.87;;
13520;SDS011;6832;51.186;3.236;2023-04-07T03:17:07;28.87;;;5.70;;
13520;SDS011;6832;51.186;3.236;2023-04-07T03:19:34;27.13;;;6.00;;
13520;SDS011;6832;51.186;3.236;2023-04-07T03:22:01;25.90;;;6.07;;
13520;SDS011;6832;51.186;3.236;2023-04-07T03:24:28;32.07;;;6.70;;
13520;SDS011;6832;51.186;3.236;2023-04-07T03:26:55;22.73;;;5.63;;
13520;SDS011;6832;51.186;3.236;2023-04-07T03:29:23;53.20;;;8.33;;
13520;SDS011;6832;51.186;3.236;2023-04-07T03:31:51;24.60;;;5.77;;
13520;SDS011;6832;51.186;3.236;2023-04-07T03:34:17;29.70;;;5.77;;
13520;SDS011;6832;51.186;3.236;2023-04-07T03:36:44;47.10;;;7.37;;
13520;SDS011;6832;51.186;3.236;2023-04-07T03:39:11;43.83;;;7.20;;
13520;SDS011;6832;51.186;3.236;2023-04-07T03:41:38;28.83;;;5.67;;
13520;SDS011;6832;51.186;3.236;2023-04-07T03:44:05;24.37;;;5.73;;
13520;SDS011;6832;51.186;3.236;2023-04-07T03:46:33;27.20;;;5.63;;
13520;SDS011;6832;51.186;3.236;2023-04-07T03:49:00;27.57;;;5.53;;
13520;SDS011;6832;51.186;3.236;2023-04-07T03:51:27;30.50;;;6.07;;
13520;SDS011;6832;51.186;3.236;2023-04-07T03:53:54;25.50;;;5.60;;
13520;SDS011;6832;51.186;3.236;2023-04-07T03:56:20;56.77;;;8.07;;
13520;SDS011;6832;51.186;3.236;2023-04-07T03:58:48;28.30;;;5.93;;
13520;SDS011;6832;51.186;3.236;2023-04-07T04:01:15;35.10;;;6.40;;
13520;SDS011;6832;51.186;3.236;2023-04-07T04:03:44;39.57;;;7.07;;
13520;SDS011;6832;51.186;3.236;2023-04-07T04:06:11;23.07;;;5.10;;
13520;SDS011;6832;51.186;3.236;2023-04-07T04:08:37;24.60;;;5.93;;
13520;SDS011;6832;51.186;3.236;2023-04-07T04:11:04;35.73;;;6.53;;
13520;SDS011;6832;51.186;3.236;2023-04-07T04:13:31;25.80;;;5.83;;
13520;SDS011;6832;51.186;3.236;2023-04-07T04:15:58;39.07;;;6.57;;
13520;SDS011;6832;51.186;3.236;2023-04-07T04:18:25;24.47;;;5.73;;
13520;SDS011;6832;51.186;3.236;2023-04-07T04:20:53;18.33;;;5.40;;
13520;SDS011;6832;51.186;3.236;2023-04-07T04:23:20;27.57;;;5.43;;
13520;SDS011;6832;51.186;3.236;2023-04-07T04:25:47;54.70;;;7.73;;
13520;SDS011;6832;51.186;3.236;2023-04-07T04:28:13;39.40;;;6.93;;
13520;SDS011;6832;51.186;3.236;2023-04-07T04:30:40;52.97;;;7.90;;
13520;SDS011;6832;51.186;3.236;2023-04-07T04:33:07;60.80;;;8.47;;
13520;SDS011;6832;51.186;3.236;2023-04-07T04:35:34;45.67;;;7.37;;
13520;SDS011;6832;51.186;3.236;2023-04-07T04:38:02;40.63;;;6.70;;
13520;SDS011;6832;51.186;3.236;2023-04-07T04:40:29;43.67;;;6.73;;
13520;SDS011;6832;51.186;3.236;2023-04-07T04:42:56;38.03;;;6.67;;
13520;SDS011;6832;51.186;3.236;2023-04-07T04:45:23;30.00;;;6.07;;
13520;SDS011;6832;51.186;3.236;2023-04-07T04:47:50;26.77;;;5.83;;
13520;SDS011;6832;51.186;3.236;2023-04-07T04:50:17;26.97;;;5.63;;
13520;SDS011;6832;51.186;3.236;2023-04-07T04:52:44;27.63;;;6.03;;
13520;SDS011;6832;51.186;3.236;2023-04-07T04:55:12;27.93;;;6.17;;
13520;SDS011;6832;51.186;3.236;2023-04-07T04:57:39;23.10;;;5.57;;
13520;SDS011;6832;51.186;3.236;2023-04-07T05:00:06;36.37;;;6.60;;
13520;SDS011;6832;51.186;3.236;2023-04-07T05:02:34;49.50;;;7.73;;
13520;SDS011;6832;51.186;3.236;2023-04-07T05:05:01;35.73;;;6.43;;
13520;SDS011;6832;51.186;3.236;2023-04-07T05:07:28;19.07;;;5.03;;
13520;SDS011;6832;51.186;3.236;2023-04-07T05:09:55;29.57;;;6.03;;
13520;SDS011;6832;51.186;3.236;2023-04-07T05:12:24;33.40;;;6.70;;
13520;SDS011;6832;51.186;3.236;2023-04-07T05:14:52;40.43;;;7.10;;
13520;SDS011;6832;51.186;3.236;2023-04-07T05:17:19;28.57;;;6.33;;
13520;SDS011;6832;51.186;3.236;2023-04-07T05:19:46;32.27;;;6.33;;
13520;SDS011;6832;51.186;3.236;2023-04-07T05:22:12;28.43;;;5.90;;
13520;SDS011;6832;51.186;3.236;2023-04-07T05:24:39;26.90;;;5.87;;
13520;SDS011;6832;51.186;3.236;2023-04-07T05:27:06;39.80;;;6.67;;
13520;SDS011;6832;51.186;3.236;2023-04-07T05:29:35;34.77;;;6.53;;
13520;SDS011;6832;51.186;3.236;2023-04-07T05:32:03;29.97;;;6.27;;
13520;SDS011;6832;51.186;3.236;2023-04-07T05:34:30;24.63;;;5.70;;
13520;SDS011;6832;51.186;3.236;2023-04-07T05:36:57;25.47;;;6.20;;
13520;SDS011;6832;51.186;3.236;2023-04-07T05:39:24;27.17;;;5.63;;
13520;SDS011;6832;51.186;3.236;2023-04-07T05:41:51;19.37;;;5.70;;
13520;SDS011;6832;51.186;3.236;2023-04-07T05:44:18;31.87;;;6.10;;
13520;SDS011;6832;51.186;3.236;2023-04-07T05:46:46;29.90;;;6.23;;
13520;SDS011;6832;51.186;3.236;2023-04-07T05:49:13;30.23;;;6.30;;
13520;SDS011;6832;51.186;3.236;2023-04-07T05:51:40;24.57;;;5.90;;
13520;SDS011;6832;51.186;3.236;2023-04-07T05:54:06;43.93;;;7.40;;
13520;SDS011;6832;51.186;3.236;2023-04-07T05:56:33;51.37;;;8.17;;
13520;SDS011;6832;51.186;3.236;2023-04-07T05:59:00;20.90;;;5.13;;
13520;SDS011;6832;51.186;3.236;2023-04-07T06:01:27;34.83;;;6.83;;
13520;SDS011;6832;51.186;3.236;2023-04-07T06:03:56;41.33;;;7.13;;
13520;SDS011;6832;51.186;3.236;2023-04-07T06:06:23;56.33;;;8.03;;
13520;SDS011;6832;51.186;3.236;2023-04-07T06:08:53;53.53;;;8.00;;
13520;SDS011;6832;51.186;3.236;2023-04-07T06:11:20;37.73;;;6.87;;
13520;SDS011;6832;51.186;3.236;2023-04-07T06:13:47;40.30;;;7.10;;
13520;SDS011;6832;51.186;3.236;2023-04-07T06:16:14;51.03;;;8.00;;
13520;SDS011;6832;51.186;3.236;2023-04-07T06:18:41;34.70;;;6.77;;
13520;SDS011;6832;51.186;3.236;2023-04-07T06:21:09;30.83;;;6.50;;
13520;SDS011;6832;51.186;3.236;2023-04-07T06:23:36;43.37;;;7.83;;
13520;SDS011;6832;51.186;3.236;2023-04-07T06:26:03;33.13;;;6.10;;
13520;SDS011;6832;51.186;3.236;2023-04-07T06:28:30;35.60;;;7.03;;
13520;SDS011;6832;51.186;3.236;2023-04-07T06:30:57;29.53;;;6.47;;
13520;SDS011;6832;51.186;3.236;2023-04-07T06:33:25;35.57;;;6.57;;
13520;SDS011;6832;51.186;3.236;2023-04-07T06:35:52;31.87;;;6.60;;
13520;SDS011;6832;51.186;3.236;2023-04-07T06:38:21;34.93;;;6.47;;
13520;SDS011;6832;51.186;3.236;2023-04-07T06:40:49;33.17;;;6.47;;
13520;SDS011;6832;51.186;3.236;2023-04-07T06:43:16;38.33;;;7.30;;
13520;SDS011;6832;51.186;3.236;2023-04-07T06:45:43;38.10;;;7.10;;
13520;SDS011;6832;51.186;3.236;2023-04-07T06:48:13;33.70;;;6.30;;
13520;SDS011;6832;51.186;3.236;2023-04-07T06:50:40;32.90;;;6.80;;
13520;SDS011;6832;51.186;3.236;2023-04-07T06:53:07;47.60;;;8.03;;
13520;SDS011;6832;51.186;3.236;2023-04-07T06:55:35;36.53;;;6.57;;
13520;SDS011;6832;51.186;3.236;2023-04-07T06:58:02;34.50;;;6.40;;
13520;SDS011;6832;51.186;3.236;2023-04-07T07:00:29;33.77;;;6.33;;
13520;SDS011;6832;51.186;3.236;2023-04-07T07:02:56;25.83;;;5.67;;
13520;SDS011;6832;51.186;3.236;2023-04-07T07:05:23;50.73;;;7.97;;
13520;SDS011;6832;51.186;3.236;2023-04-07T07:07:51;25.83;;;5.70;;
13520;SDS011;6832;51.186;3.236;2023-04-07T07:10:18;28.57;;;6.10;;
13520;SDS011;6832;51.186;3.236;2023-04-07T07:12:48;33.50;;;6.73;;
13520;SDS011;6832;51.186;3.236;2023-04-07T07:15:16;52.77;;;8.20;;
13520;SDS011;6832;51.186;3.236;2023-04-07T07:17:44;29.27;;;6.53;;
13520;SDS011;6832;51.186;3.236;2023-04-07T07:20:11;32.90;;;6.60;;
13520;SDS011;6832;51.186;3.236;2023-04-07T07:22:38;36.90;;;7.40;;
13520;SDS011;6832;51.186;3.236;2023-04-07T07:25:06;20.80;;;6.83;;
13520;SDS011;6832;51.186;3.236;2023-04-07T07:27:33;35.87;;;7.53;;
13520;SDS011;6832;51.186;3.236;2023-04-07T07:30:01;24.97;;;6.83;;
13520;SDS011;6832;51.186;3.236;2023-04-07T07:32:29;26.53;;;7.20;;
13520;SDS011;6832;51.186;3.236;2023-04-07T07:34:56;22.17;;;6.80;;
13520;SDS011;6832;51.186;3.236;2023-04-07T07:37:24;31.83;;;7.03;;
13520;SDS011;6832;51.186;3.236;2023-04-07T07:39:52;29.67;;;7.20;;
13520;SDS011;6832;51.186;3.236;2023-04-07T07:42:20;26.20;;;7.40;;
13520;SDS011;6832;51.186;3.236;2023-04-07T07:44:47;51.43;;;8.90;;
13520;SDS011;6832;51.186;3.236;2023-04-07T07:47:15;26.77;;;7.37;;
13520;SDS011;6832;51.186;3.236;2023-04-07T07:49:42;34.57;;;8.10;;
13520;SDS011;6832;51.186;3.236;2023-04-07T07:52:09;38.50;;;8.10;;
13520;SDS011;6832;51.186;3.236;2023-04-07T07:54:36;47.20;;;9.10;;
13520;SDS011;6832;51.186;3.236;2023-04-07T07:57:03;41.70;;;8.57;;
13520;SDS011;6832;51.186;3.236;2023-04-07T07:59:30;37.93;;;8.97;;
13520;SDS011;6832;51.186;3.236;2023-04-07T08:01:57;28.57;;;7.77;;
13520;SDS011;6832;51.186;3.236;2023-04-07T08:04:26;49.63;;;9.70;;
13520;SDS011;6832;51.186;3.236;2023-04-07T08:06:53;41.80;;;8.87;;
13520;SDS011;6832;51.186;3.236;2023-04-07T08:09:20;29.17;;;8.33;;
13520;SDS011;6832;51.186;3.236;2023-04-07T08:11:47;38.90;;;9.37;;
13520;SDS011;6832;51.186;3.236;2023-04-07T08:14:15;31.65;;;9.30;;
13520;SDS011;6832;51.186;3.236;2023-04-07T08:16:42;36.90;;;9.53;;
13520;SDS011;6832;51.186;3.236;2023-04-07T08:19:09;39.20;;;10.43;;
13520;SDS011;6832;51.186;3.236;2023-04-07T08:21:38;41.57;;;9.70;;
13520;SDS011;6832;51.186;3.236;2023-04-07T08:24:06;32.93;;;9.20;;
13520;SDS011;6832;51.186;3.236;2023-04-07T08:26:34;30.67;;;8.57;;
13520;SDS011;6832;51.186;3.236;2023-04-07T08:29:01;34.10;;;9.40;;
13520;SDS011;6832;51.186;3.236;2023-04-07T08:31:28;39.60;;;10.43;;
13520;SDS011;6832;51.186;3.236;2023-04-07T08:33:54;37.43;;;10.50;;
13520;SDS011;6832;51.186;3.236;2023-04-07T08:36:23;29.73;;;9.67;;
13520;SDS011;6832;51.186;3.236;2023-04-07T08:38:51;37.27;;;11.10;;
13520;SDS011;6832;51.186;3.236;2023-04-07T08:41:20;32.30;;;10.63;;
13520;SDS011;6832;51.186;3.236;2023-04-07T08:43:52;46.67;;;11.50;;
13520;SDS011;6832;51.186;3.236;2023-04-07T08:46:21;37.20;;;10.13;;
13520;SDS011;6832;51.186;3.236;2023-04-07T08:48:49;40.93;;;10.53;;
13520;SDS011;6832;51.186;3.236;2023-04-07T08:51:19;31.23;;;10.37;;
13520;SDS011;6832;51.186;3.236;2023-04-07T08:53:56;39.40;;;10.93;;
13520;SDS011;6832;51.186;3.236;2023-04-07T08:56:28;35.67;;;10.33;;
13520;SDS011;6832;51.186;3.236;2023-04-07T08:58:57;36.97;;;10.03;;
13520;SDS011;6832;51.186;3.236;2023-04-07T09:01:25;59.03;;;11.97;;
13520;SDS011;6832;51.186;3.236;2023-04-07T09:03:53;39.47;;;11.17;;
13520;SDS011;6832;51.186;3.236;2023-04-07T09:06:22;33.80;;;9.90;;
13520;SDS011;6832;51.186;3.236;2023-04-07T09:08:51;35.70;;;10.37;;
13520;SDS011;6832;51.186;3.236;2023-04-07T09:11:19;34.83;;;10.40;;
13520;SDS011;6832;51.186;3.236;2023-04-07T09:13:48;32.13;;;10.00;;
13520;SDS011;6832;51.186;3.236;2023-04-07T09:16:15;40.33;;;10.63;;
13520;SDS011;6832;51.186;3.236;2023-04-07T09:18:42;32.27;;;9.77;;
13520;SDS011;6832;51.186;3.236;2023-04-07T09:21:09;33.57;;;10.33;;
13520;SDS011;6832;51.186;3.236;2023-04-07T09:23:36;31.10;;;9.10;;
13520;SDS011;6832;51.186;3.236;2023-04-07T09:28:56;56.17;;;12.23;;
13520;SDS011;6832;51.186;3.236;2023-04-07T09:31:44;31.80;;;10.30;;
13520;SDS011;6832;51.186;3.236;2023-04-07T09:34:22;47.63;;;12.73;;
13520;SDS011;6832;51.186;3.236;2023-04-07T09:36:50;47.67;;;13.87;;
13520;SDS011;6832;51.186;3.236;2023-04-07T09:39:17;37.17;;;13.10;;
13520;SDS011;6832;51.186;3.236;2023-04-07T09:41:45;36.00;;;12.53;;
13520;SDS011;6832;51.186;3.236;2023-04-07T09:44:12;57.27;;;13.90;;
13520;SDS011;6832;51.186;3.236;2023-04-07T09:46:47;39.63;;;12.23;;
13520;SDS011;6832;51.186;3.236;2023-04-07T09:49:14;55.07;;;13.83;;
13520;SDS011;6832;51.186;3.236;2023-04-07T09:51:51;34.03;;;12.40;;
13520;SDS011;6832;51.186;3.236;2023-04-07T09:54:30;80.17;;;15.87;;
13520;SDS011;6832;51.186;3.236;2023-04-07T09:57:02;38.00;;;13.00;;
13520;SDS011;6832;51.186;3.236;2023-04-07T09:59:30;54.07;;;13.60;;
13520;SDS011;6832;51.186;3.236;2023-04-07T10:01:58;45.30;;;11.83;;
13520;SDS011;6832;51.186;3.236;2023-04-07T10:04:32;43.83;;;12.50;;
13520;SDS011;6832;51.186;3.236;2023-04-07T10:06:59;32.93;;;11.23;;
13520;SDS011;6832;51.186;3.236;2023-04-07T10:09:27;34.83;;;11.10;;
13520;SDS011;6832;51.186;3.236;2023-04-07T10:12:03;37.23;;;11.33;;
13520;SDS011;6832;51.186;3.236;2023-04-07T10:14:31;34.57;;;11.27;;
13520;SDS011;6832;51.186;3.236;2023-04-07T10:17:00;40.20;;;11.50;;
13520;SDS011;6832;51.186;3.236;2023-04-07T10:19:31;34.20;;;10.93;;
13520;SDS011;6832;51.186;3.236;2023-04-07T10:22:00;37.73;;;11.17;;
13520;SDS011;6832;51.186;3.236;2023-04-07T10:24:36;33.00;;;10.50;;
13520;SDS011;6832;51.186;3.236;2023-04-07T10:27:17;38.07;;;10.87;;
13520;SDS011;6832;51.186;3.236;2023-04-07T10:29:48;35.20;;;10.57;;
13520;SDS011;6832;51.186;3.236;2023-04-07T10:32:17;43.23;;;10.97;;
13520;SDS011;6832;51.186;3.236;2023-04-07T10:37:28;26.67;;;9.30;;
13520;SDS011;6832;51.186;3.236;2023-04-07T10:43:01;21.77;;;8.47;;
13520;SDS011;6832;51.186;3.236;2023-04-07T10:47:03;43.80;;;10.67;;
13520;SDS011;6832;51.186;3.236;2023-04-07T10:49:31;56.77;;;11.43;;
13520;SDS011;6832;51.186;3.236;2023-04-07T10:54:47;45.80;;;10.90;;
13520;SDS011;6832;51.186;3.236;2023-04-07T10:57:34;36.77;;;10.30;;
13520;SDS011;6832;51.186;3.236;2023-04-07T11:00:14;41.67;;;10.07;;
13520;SDS011;6832;51.186;3.236;2023-04-07T11:02:48;33.70;;;8.73;;
13520;SDS011;6832;51.186;3.236;2023-04-07T11:05:19;40.93;;;9.80;;
13520;SDS011;6832;51.186;3.236;2023-04-07T11:07:50;58.57;;;10.50;;
13520;SDS011;6832;51.186;3.236;2023-04-07T11:10:22;38.97;;;9.43;;
13520;SDS011;6832;51.186;3.236;2023-04-07T11:12:59;37.73;;;9.03;;
13520;SDS011;6832;51.186;3.236;2023-04-07T11:15:27;36.83;;;8.73;;
13520;SDS011;6832;51.186;3.236;2023-04-07T11:18:11;59.30;;;11.03;;
13520;SDS011;6832;51.186;3.236;2023-04-07T11:20:43;42.10;;;9.87;;
13520;SDS011;6832;51.186;3.236;2023-04-07T11:23:12;39.53;;;8.97;;
13520;SDS011;6832;51.186;3.236;2023-04-07T11:25:43;42.50;;;8.90;;
13520;SDS011;6832;51.186;3.236;2023-04-07T11:28:12;40.47;;;8.97;;
13520;SDS011;6832;51.186;3.236;2023-04-07T11:30:44;32.37;;;8.07;;
13520;SDS011;6832;51.186;3.236;2023-04-07T11:33:17;42.47;;;8.47;;
13520;SDS011;6832;51.186;3.236;2023-04-07T11:35:51;60.53;;;10.40;;
13520;SDS011;6832;51.186;3.236;2023-04-07T11:38:23;37.30;;;8.23;;
13520;SDS011;6832;51.186;3.236;2023-04-07T11:40:52;71.00;;;11.33;;
13520;SDS011;6832;51.186;3.236;2023-04-07T11:43:21;34.27;;;8.17;;
13520;SDS011;6832;51.186;3.236;2023-04-07T11:46:05;34.07;;;7.37;;
13520;SDS011;6832;51.186;3.236;2023-04-07T11:48:34;38.10;;;7.97;;
13520;SDS011;6832;51.186;3.236;2023-04-07T11:51:02;36.70;;;8.17;;
13520;SDS011;6832;51.186;3.236;2023-04-07T11:53:30;54.60;;;9.57;;
13520;SDS011;6832;51.186;3.236;2023-04-07T11:55:58;41.57;;;8.90;;
13520;SDS011;6832;51.186;3.236;2023-04-07T11:58:30;50.60;;;8.67;;
13520;SDS011;6832;51.186;3.236;2023-04-07T12:00:57;33.87;;;7.67;;
13520;SDS011;6832;51.186;3.236;2023-04-07T12:03:29;32.53;;;7.10;;
13520;SDS011;6832;51.186;3.236;2023-04-07T12:05:58;40.27;;;8.00;;
13520;SDS011;6832;51.186;3.236;2023-04-07T12:08:38;29.57;;;6.93;;
13520;SDS011;6832;51.186;3.236;2023-04-07T12:11:06;38.33;;;7.97;;
13520;SDS011;6832;51.186;3.236;2023-04-07T12:13:34;43.33;;;8.17;;
13520;SDS011;6832;51.186;3.236;2023-04-07T12:16:01;58.70;;;8.93;;
13520;SDS011;6832;51.186;3.236;2023-04-07T12:18:28;41.43;;;8.03;;
13520;SDS011;6832;51.186;3.236;2023-04-07T12:20:55;41.07;;;7.43;;
13520;SDS011;6832;51.186;3.236;2023-04-07T12:23:24;72.57;;;10.00;;
13520;SDS011;6832;51.186;3.236;2023-04-07T12:25:51;70.70;;;10.60;;
13520;SDS011;6832;51.186;3.236;2023-04-07T12:28:18;51.77;;;8.03;;
13520;SDS011;6832;51.186;3.236;2023-04-07T12:30:45;31.57;;;6.50;;
13520;SDS011;6832;51.186;3.236;2023-04-07T12:33:13;29.20;;;6.57;;
13520;SDS011;6832;51.186;3.236;2023-04-07T12:35:40;18.97;;;5.27;;
13520;SDS011;6832;51.186;3.236;2023-04-07T12:38:07;60.10;;;8.90;;
13520;SDS011;6832;51.186;3.236;2023-04-07T12:40:35;43.77;;;7.80;;
13520;SDS011;6832;51.186;3.236;2023-04-07T12:43:03;28.97;;;6.33;;
13520;SDS011;6832;51.186;3.236;2023-04-07T12:45:30;25.10;;;5.83;;
13520;SDS011;6832;51.186;3.236;2023-04-07T12:47:59;29.90;;;6.10;;
13520;SDS011;6832;51.186;3.236;2023-04-07T12:50:26;61.10;;;9.00;;
13520;SDS011;6832;51.186;3.236;2023-04-07T12:52:57;30.97;;;6.53;;
13520;SDS011;6832;51.186;3.236;2023-04-07T12:55:27;29.43;;;6.47;;
13520;SDS011;6832;51.186;3.236;2023-04-07T12:57:55;57.77;;;8.73;;
13520;SDS011;6832;51.186;3.236;2023-04-07T13:00:22;40.07;;;7.03;;
13520;SDS011;6832;51.186;3.236;2023-04-07T13:02:51;41.23;;;7.30;;
13520;SDS011;6832;51.186;3.236;2023-04-07T13:05:18;25.03;;;5.50;;
13520;SDS011;6832;51.186;3.236;2023-04-07T13:07:45;43.27;;;7.97;;
13520;SDS011;6832;51.186;3.236;2023-04-07T13:10:12;26.60;;;6.33;;
13520;SDS011;6832;51.186;3.236;2023-04-07T13:12:39;35.03;;;7.30;;
13520;SDS011;6832;51.186;3.236;2023-04-07T13:15:07;45.13;;;7.57;;
13520;SDS011;6832;51.186;3.236;2023-04-07T13:17:34;28.33;;;6.50;;
13520;SDS011;6832;51.186;3.236;2023-04-07T13:20:03;35.17;;;6.57;;
13520;SDS011;6832;51.186;3.236;2023-04-07T13:22:30;43.57;;;7.07;;
13520;SDS011;6832;51.186;3.236;2023-04-07T13:24:57;39.07;;;7.30;;
13520;SDS011;6832;51.186;3.236;2023-04-07T13:27:24;31.73;;;6.07;;
13520;SDS011;6832;51.186;3.236;2023-04-07T13:29:51;27.50;;;6.07;;
13520;SDS011;6832;51.186;3.236;2023-04-07T13:32:19;30.20;;;6.57;;
13520;SDS011;6832;51.186;3.236;2023-04-07T13:34:47;32.00;;;6.20;;
13520;SDS011;6832;51.186;3.236;2023-04-07T13:37:14;33.37;;;6.63;;
13520;SDS011;6832;51.186;3.236;2023-04-07T13:39:43;30.13;;;6.23;;
13520;SDS011;6832;51.186;3.236;2023-04-07T13:42:10;25.07;;;5.73;;
13520;SDS011;6832;51.186;3.236;2023-04-07T13:44:40;36.47;;;6.43;;
13520;SDS011;6832;51.186;3.236;2023-04-07T13:47:09;83.23;;;10.43;;
13520;SDS011;6832;51.186;3.236;2023-04-07T13:49:40;22.60;;;5.37;;
13520;SDS011;6832;51.186;3.236;2023-04-07T13:52:07;29.73;;;5.97;;
13520;SDS011;6832;51.186;3.236;2023-04-07T13:54:34;34.53;;;6.37;;
13520;SDS011;6832;51.186;3.236;2023-04-07T13:57:01;42.77;;;7.27;;
13520;SDS011;6832;51.186;3.236;2023-04-07T13:59:28;27.00;;;5.97;;
13520;SDS011;6832;51.186;3.236;2023-04-07T14:01:55;18.77;;;5.07;;
13520;SDS011;6832;51.186;3.236;2023-04-07T14:04:22;25.47;;;5.37;;
13520;SDS011;6832;51.186;3.236;2023-04-07T14:06:50;25.43;;;5.67;;
13520;SDS011;6832;51.186;3.236;2023-04-07T14:09:17;31.27;;;6.23;;
13520;SDS011;6832;51.186;3.236;2023-04-07T14:11:44;23.80;;;5.17;;
13520;SDS011;6832;51.186;3.236;2023-04-07T14:14:12;26.90;;;5.77;;
13520;SDS011;6832;51.186;3.236;2023-04-07T14:16:39;24.43;;;5.30;;
13520;SDS011;6832;51.186;3.236;2023-04-07T14:19:06;27.17;;;6.27;;
13520;SDS011;6832;51.186;3.236;2023-04-07T14:21:33;23.50;;;5.13;;
13520;SDS011;6832;51.186;3.236;2023-04-07T14:24:01;46.83;;;7.23;;
13520;SDS011;6832;51.186;3.236;2023-04-07T14:26:28;28.47;;;5.83;;
13520;SDS011;6832;51.186;3.236;2023-04-07T14:28:55;21.93;;;5.30;;
13520;SDS011;6832;51.186;3.236;2023-04-07T14:31:22;26.97;;;5.83;;
13520;SDS011;6832;51.186;3.236;2023-04-07T14:33:49;33.70;;;5.67;;
13520;SDS011;6832;51.186;3.236;2023-04-07T14:36:15;28.60;;;5.57;;
13520;SDS011;6832;51.186;3.236;2023-04-07T14:38:42;33.53;;;5.93;;
13520;SDS011;6832;51.186;3.236;2023-04-07T14:41:10;23.53;;;5.30;;
13520;SDS011;6832;51.186;3.236;2023-04-07T14:43:37;29.60;;;5.43;;
13520;SDS011;6832;51.186;3.236;2023-04-07T14:46:05;32.47;;;5.80;;
13520;SDS011;6832;51.186;3.236;2023-04-07T14:48:32;29.43;;;5.70;;
13520;SDS011;6832;51.186;3.236;2023-04-07T14:50:59;23.13;;;5.13;;
13520;SDS011;6832;51.186;3.236;2023-04-07T14:53:26;20.67;;;5.13;;
13520;SDS011;6832;51.186;3.236;2023-04-07T14:55:53;22.53;;;5.20;;
13520;SDS011;6832;51.186;3.236;2023-04-07T14:58:22;33.27;;;6.03;;
13520;SDS011;6832;51.186;3.236;2023-04-07T15:00:48;27.17;;;5.60;;
13520;SDS011;6832;51.186;3.236;2023-04-07T15:03:18;22.30;;;5.67;;
13520;SDS011;6832;51.186;3.236;2023-04-07T15:05:45;30.73;;;6.03;;